createdAt,value
2018-06-20T00:00:37.394Z,99.90
2018-06-20T00:03:06.083Z,99.90
2018-06-20T00:05:35.696Z,99.90
2018-06-20T00:08:04.224Z,99.90
2018-06-20T00:10:32.770Z,99.90
2018-06-20T00:13:01.365Z,99.90
2018-06-20T00:15:29.839Z,99.90
2018-06-20T00:17:59.159Z,99.90
2018-06-20T00:20:27.648Z,99.90
2018-06-20T00:22:56.249Z,99.90
2018-06-20T00:25:24.868Z,99.90
2018-06-20T00:27:53.368Z,99.90
2018-06-20T00:30:21.985Z,99.90
2018-06-20T00:32:50.462Z,99.90
2018-06-20T00:35:19.023Z,99.90
2018-06-20T00:37:47.491Z,99.90
2018-06-20T00:40:16.010Z,99.90
2018-06-20T00:42:44.514Z,99.90
2018-06-20T00:45:13.585Z,99.90
2018-06-20T00:47:42.133Z,99.90
2018-06-20T00:50:10.648Z,99.90
2018-06-20T00:52:39.152Z,99.90
2018-06-20T00:55:07.695Z,99.90
2018-06-20T00:57:36.359Z,99.90
2018-06-20T01:00:04.885Z,99.90
2018-06-20T01:02:33.442Z,99.90
2018-06-20T01:05:01.922Z,99.90
2018-06-20T01:07:30.546Z,99.90
2018-06-20T01:09:59.198Z,99.90
2018-06-20T01:12:27.646Z,99.90
2018-06-20T01:14:56.214Z,99.90
2018-06-20T01:17:24.719Z,99.90
2018-06-20T01:19:53.195Z,99.90
2018-06-20T01:22:21.686Z,99.90
2018-06-20T01:24:50.157Z,99.90
2018-06-20T01:27:18.643Z,99.90
2018-06-20T01:29:47.146Z,99.90
2018-06-20T01:32:15.630Z,99.90
2018-06-20T01:34:44.155Z,99.90
2018-06-20T01:37:12.646Z,99.90
2018-06-20T01:39:41.720Z,99.90
2018-06-20T01:42:10.939Z,99.90
2018-06-20T01:44:39.481Z,99.90
2018-06-20T01:47:07.964Z,99.90
2018-06-20T01:49:36.445Z,99.90
2018-06-20T01:52:04.954Z,99.90
2018-06-20T01:54:33.548Z,99.90
2018-06-20T01:57:02.009Z,99.90
2018-06-20T01:59:30.487Z,99.90
2018-06-20T02:01:58.982Z,99.90
2018-06-20T02:04:27.521Z,99.90
2018-06-20T02:06:56.244Z,99.90
2018-06-20T02:09:25.266Z,99.90
2018-06-20T02:11:53.811Z,99.90
2018-06-20T02:14:22.287Z,99.90
2018-06-20T02:16:51.433Z,99.90
2018-06-20T02:19:19.935Z,99.90
2018-06-20T02:21:48.420Z,99.90
2018-06-20T02:24:16.940Z,99.90
2018-06-20T02:26:45.493Z,99.90
2018-06-20T02:29:13.959Z,99.90
2018-06-20T02:31:42.518Z,99.90
2018-06-20T02:34:11.129Z,99.90
2018-06-20T02:36:39.615Z,99.90
2018-06-20T02:39:08.745Z,99.90
2018-06-20T02:41:37.941Z,99.90
2018-06-20T02:44:06.536Z,99.90
2018-06-20T02:46:35.132Z,99.90
2018-06-20T02:49:03.627Z,99.90
2018-06-20T02:51:32.119Z,99.90
2018-06-20T02:54:01.364Z,99.90
2018-06-20T02:56:30.007Z,99.90
2018-06-20T02:58:58.644Z,99.90
2018-06-20T03:01:27.213Z,99.90
2018-06-20T03:03:55.784Z,99.90
2018-06-20T03:06:24.295Z,99.90
2018-06-20T03:08:58.198Z,99.90
2018-06-20T03:11:27.499Z,99.90
2018-06-20T03:13:56.033Z,99.90
2018-06-20T03:16:24.591Z,99.90
2018-06-20T03:18:53.218Z,99.90
2018-06-20T03:21:21.723Z,99.90
2018-06-20T03:23:50.196Z,99.90
2018-06-20T03:26:18.706Z,99.90
2018-06-20T03:28:47.166Z,99.90
2018-06-20T03:31:16.239Z,99.90
2018-06-20T03:33:44.881Z,99.90
2018-06-20T03:36:13.651Z,99.90
2018-06-20T03:38:42.124Z,99.90
2018-06-20T03:41:10.759Z,99.90
2018-06-20T03:43:39.843Z,99.90
2018-06-20T03:46:08.422Z,99.90
2018-06-20T03:48:36.976Z,99.90
2018-06-20T03:51:05.541Z,99.90
2018-06-20T03:53:34.222Z,99.90
2018-06-20T03:56:02.683Z,99.90
2018-06-20T03:58:31.845Z,99.90
2018-06-20T04:01:00.423Z,99.90
2018-06-20T04:03:28.967Z,99.90
2018-06-20T04:05:57.454Z,99.90
2018-06-20T04:08:26.369Z,99.90
2018-06-20T04:10:56.159Z,99.90
2018-06-20T04:13:24.813Z,99.90
2018-06-20T04:15:53.411Z,99.90
2018-06-20T04:18:26.589Z,99.90
2018-06-20T04:20:55.111Z,99.90
2018-06-20T04:23:23.690Z,99.90
2018-06-20T04:25:52.286Z,99.90
2018-06-20T04:28:21.478Z,99.90
2018-06-20T04:30:50.037Z,99.90
2018-06-20T04:33:18.772Z,99.90
2018-06-20T04:35:47.273Z,99.90
2018-06-20T04:38:16.513Z,99.90
2018-06-20T04:40:45.067Z,99.90
2018-06-20T04:45:42.518Z,99.90
2018-06-20T04:48:11.292Z,99.90
2018-06-20T04:50:39.875Z,99.90
2018-06-20T04:53:08.775Z,99.90
2018-06-20T04:55:37.377Z,99.90
2018-06-20T04:58:06.169Z,99.90
2018-06-20T05:03:03.182Z,99.90
2018-06-20T05:05:32.045Z,99.90
2018-06-20T05:08:00.561Z,99.90
2018-06-20T05:10:29.172Z,99.90
2018-06-20T05:12:57.732Z,99.90
2018-06-20T05:15:26.317Z,99.90
2018-06-20T05:17:54.895Z,99.90
2018-06-20T05:20:23.457Z,99.90
2018-06-20T05:22:52.730Z,99.90
2018-06-20T05:25:21.226Z,99.90
2018-06-20T05:27:49.714Z,99.90
2018-06-20T05:30:18.311Z,99.90
2018-06-20T05:32:46.998Z,99.90
2018-06-20T05:35:15.537Z,99.90
2018-06-20T05:37:44.106Z,99.90
2018-06-20T05:40:12.585Z,99.90
2018-06-20T05:42:41.202Z,99.90
2018-06-20T05:45:09.830Z,99.90
2018-06-20T05:47:38.317Z,99.90
2018-06-20T05:50:07.359Z,99.90
2018-06-20T05:52:35.844Z,99.90
2018-06-20T05:55:04.368Z,99.90
2018-06-20T05:57:32.942Z,99.90
2018-06-20T06:00:02.344Z,99.90
2018-06-20T06:02:30.859Z,99.90
2018-06-20T06:04:59.367Z,99.90
2018-06-20T06:07:27.933Z,99.90
2018-06-20T06:09:56.427Z,99.90
2018-06-20T06:14:54.014Z,99.90
2018-06-20T06:17:22.489Z,99.90
2018-06-20T06:19:50.976Z,99.90
2018-06-20T06:22:19.490Z,99.90
2018-06-20T06:24:48.020Z,99.90
2018-06-20T06:27:16.600Z,99.90
2018-06-20T06:29:45.085Z,99.90
2018-06-20T06:32:13.653Z,99.90
2018-06-20T06:34:42.147Z,99.90
2018-06-20T06:37:10.761Z,99.90
2018-06-20T06:39:39.361Z,99.90
2018-06-20T06:42:07.808Z,99.90
2018-06-20T06:44:36.387Z,99.90
2018-06-20T06:47:04.868Z,99.90
2018-06-20T06:49:34.183Z,99.90
2018-06-20T06:52:02.611Z,99.90
2018-06-20T06:54:31.125Z,99.90
2018-06-20T06:56:59.686Z,99.90
2018-06-20T06:59:28.257Z,99.90
2018-06-20T07:01:57.755Z,99.90
2018-06-20T07:04:26.360Z,99.90
2018-06-20T07:06:54.871Z,99.90
2018-06-20T07:09:24.203Z,99.90
2018-06-20T07:11:52.687Z,99.90
2018-06-20T07:14:21.284Z,99.90
2018-06-20T07:16:49.828Z,99.90
2018-06-20T07:19:18.342Z,99.90
2018-06-20T07:21:46.934Z,99.90
2018-06-20T07:24:16.716Z,99.90
2018-06-20T07:26:45.174Z,99.20
2018-06-20T07:29:13.747Z,98.60
2018-06-20T07:31:43.045Z,99.20
2018-06-20T07:34:11.605Z,98.70
2018-06-20T07:36:40.186Z,98.30
2018-06-20T07:39:09.492Z,98.40
2018-06-20T07:41:38.109Z,98.00
2018-06-20T07:44:06.633Z,97.70
2018-06-20T07:46:35.306Z,97.70
2018-06-20T07:49:03.895Z,96.70
2018-06-20T07:51:32.431Z,96.80
2018-06-20T07:54:01.056Z,96.30
2018-06-20T07:56:29.509Z,96.80
2018-06-20T07:58:58.494Z,96.40
2018-06-20T08:03:44.756Z,95.30
2018-06-20T08:06:18.670Z,95.30
2018-06-20T08:08:52.473Z,95.00
2018-06-20T08:11:26.372Z,94.00
2018-06-20T08:14:00.114Z,92.60
2018-06-20T08:16:33.788Z,94.00
2018-06-20T08:19:07.553Z,93.10
2018-06-20T08:21:36.200Z,92.60
2018-06-20T08:24:04.807Z,91.70
2018-06-20T08:26:33.302Z,91.10
2018-06-20T08:29:01.837Z,91.20
2018-06-20T08:31:30.368Z,90.70
2018-06-20T08:33:58.833Z,91.10
2018-06-20T08:36:27.380Z,88.90
2018-06-20T08:38:56.032Z,88.80
2018-06-20T08:41:24.575Z,87.10
2018-06-20T08:43:53.067Z,87.20
2018-06-20T08:46:21.620Z,84.30
2018-06-20T08:48:50.094Z,90.10
2018-06-20T08:51:18.574Z,88.50
2018-06-20T08:53:47.052Z,86.60
2018-06-20T08:56:15.653Z,88.20
2018-06-20T08:58:44.122Z,85.40
2018-06-20T09:01:12.632Z,85.20
2018-06-20T09:03:41.182Z,80.80
2018-06-20T09:08:22.069Z,80.70
2018-06-20T09:10:55.790Z,79.00
2018-06-20T09:13:29.552Z,78.90
2018-06-20T09:16:03.342Z,81.40
2018-06-20T09:18:37.257Z,79.70
2018-06-20T09:21:05.851Z,81.80
2018-06-20T09:23:34.308Z,81.50
2018-06-20T09:26:02.793Z,79.10
2018-06-20T09:28:31.361Z,77.10
2018-06-20T09:30:59.998Z,80.80
2018-06-20T09:33:28.457Z,78.50
2018-06-20T09:35:56.939Z,77.00
2018-06-20T09:38:25.447Z,78.70
2018-06-20T09:40:54.738Z,80.50
2018-06-20T09:43:23.240Z,84.00
2018-06-20T09:45:51.819Z,82.60
2018-06-20T09:48:20.396Z,79.00
2018-06-20T09:50:54.298Z,77.90
2018-06-20T09:53:23.576Z,79.20
2018-06-20T09:55:52.187Z,80.40
2018-06-20T09:58:20.715Z,77.80
2018-06-20T10:03:00.661Z,78.90
2018-06-20T10:05:34.251Z,77.90
2018-06-20T10:08:08.196Z,73.60
2018-06-20T10:10:42.105Z,71.70
2018-06-20T10:13:12.584Z,73.40
2018-06-20T10:15:41.079Z,72.70
2018-06-20T10:18:09.649Z,72.70
2018-06-20T10:20:38.311Z,69.00
2018-06-20T10:23:06.772Z,71.90
2018-06-20T10:25:35.387Z,68.10
2018-06-20T10:28:03.969Z,62.70
2018-06-20T10:30:32.395Z,68.60
2018-06-20T10:33:01.503Z,66.60
2018-06-20T10:35:30.018Z,66.00
2018-06-20T10:37:59.077Z,64.10
2018-06-20T10:40:27.568Z,67.10
2018-06-20T10:42:56.079Z,65.40
2018-06-20T10:45:29.926Z,63.60
2018-06-20T10:47:58.535Z,65.10
2018-06-20T10:50:27.079Z,65.50
2018-06-20T10:52:55.559Z,64.40
2018-06-20T10:55:24.165Z,66.70
2018-06-20T10:57:58.030Z,66.50
2018-06-20T11:00:31.866Z,68.30
2018-06-20T11:03:05.659Z,73.30
2018-06-20T11:05:39.565Z,71.50
2018-06-20T11:08:13.953Z,70.10
2018-06-20T11:10:48.013Z,71.60
2018-06-20T11:13:16.598Z,73.00
2018-06-20T11:15:45.681Z,70.50
2018-06-20T11:18:14.265Z,68.40
2018-06-20T11:20:47.880Z,67.70
2018-06-20T11:23:16.466Z,69.60
2018-06-20T11:25:44.924Z,70.20
2018-06-20T11:28:14.590Z,69.30
2018-06-20T11:30:44.340Z,70.90
2018-06-20T11:33:13.142Z,68.60
2018-06-20T11:35:41.986Z,70.30
2018-06-20T11:38:10.552Z,70.20
2018-06-20T11:40:39.023Z,68.50
2018-06-20T11:43:08.104Z,67.10
2018-06-20T11:45:41.838Z,67.50
2018-06-20T11:48:10.311Z,66.80
2018-06-20T11:50:38.803Z,67.80
2018-06-20T11:53:10.351Z,69.50
2018-06-20T11:55:40.912Z,67.30
2018-06-20T11:58:14.565Z,68.40
2018-06-20T12:00:48.395Z,65.80
2018-06-20T12:03:22.189Z,66.40
2018-06-20T12:05:56.020Z,64.50
2018-06-20T12:08:29.885Z,67.40
2018-06-20T12:11:03.723Z,64.30
2018-06-20T12:13:37.459Z,65.70
2018-06-20T12:16:11.300Z,65.50
2018-06-20T12:18:45.083Z,65.40
2018-06-20T12:21:18.916Z,67.50
2018-06-20T12:23:52.859Z,67.50
2018-06-20T12:26:27.375Z,66.50
2018-06-20T12:34:08.521Z,66.90
2018-06-20T12:36:42.304Z,66.30
2018-06-20T12:39:09.949Z,66.40
2018-06-20T12:41:43.851Z,67.60
2018-06-20T12:44:17.985Z,67.20
2018-06-20T12:46:51.830Z,67.00
2018-06-20T12:49:23.394Z,65.00
2018-06-20T12:51:51.921Z,67.40
2018-06-20T12:54:20.419Z,64.00
2018-06-20T12:56:48.960Z,63.40
2018-06-20T12:59:17.401Z,66.80
2018-06-20T13:01:46.510Z,66.10
2018-06-20T13:04:14.982Z,66.30
2018-06-20T13:06:43.418Z,63.90
2018-06-20T13:09:13.073Z,63.60
2018-06-20T13:11:42.087Z,63.20
2018-06-20T13:14:11.512Z,62.40
2018-06-20T13:16:39.994Z,64.20
2018-06-20T13:21:36.846Z,66.00
2018-06-20T13:24:05.642Z,63.90
2018-06-20T13:26:34.222Z,60.30
2018-06-20T13:29:02.705Z,59.90
2018-06-20T13:31:36.528Z,59.50
2018-06-20T13:36:16.166Z,61.80
2018-06-20T13:38:49.853Z,59.60
2018-06-20T13:41:23.687Z,59.30
2018-06-20T13:43:57.499Z,59.00
2018-06-20T13:46:31.412Z,59.20
2018-06-20T13:48:59.951Z,59.30
2018-06-20T13:51:28.471Z,57.50
2018-06-20T13:53:56.942Z,57.10
2018-06-20T13:58:53.676Z,59.00
2018-06-20T14:01:28.854Z,59.00
2018-06-20T14:03:57.478Z,58.30
2018-06-20T14:06:26.009Z,61.30
2018-06-20T14:08:54.496Z,59.90
2018-06-20T14:11:23.022Z,58.40
2018-06-20T14:13:51.923Z,60.10
2018-06-20T14:16:20.477Z,59.50
2018-06-20T14:18:49.643Z,61.10
2018-06-20T14:21:23.290Z,62.00
2018-06-20T14:23:51.818Z,62.00
2018-06-20T14:26:21.038Z,60.60
2018-06-20T14:28:49.602Z,60.80
2018-06-20T14:33:57.179Z,62.40
2018-06-20T14:36:30.804Z,61.30
2018-06-20T14:39:04.530Z,58.40
2018-06-20T14:41:38.357Z,60.00
2018-06-20T14:44:08.863Z,60.60
2018-06-20T14:46:37.372Z,60.10
2018-06-20T14:49:06.573Z,59.80
2018-06-20T14:51:35.193Z,59.10
2018-06-20T14:54:03.699Z,60.20
2018-06-20T14:56:32.251Z,62.20
2018-06-20T14:59:00.773Z,63.70
2018-06-20T15:01:29.328Z,62.10
2018-06-20T15:03:57.789Z,63.00
2018-06-20T15:06:26.506Z,61.80
2018-06-20T15:08:55.258Z,61.10
2018-06-20T15:11:23.776Z,64.00
2018-06-20T15:13:53.057Z,62.60
2018-06-20T15:16:26.760Z,61.20
2018-06-20T15:18:55.337Z,60.50
2018-06-20T15:21:23.874Z,61.50
2018-06-20T15:23:52.503Z,61.10
2018-06-20T15:26:26.238Z,60.70
2018-06-20T15:29:00.738Z,60.80
2018-06-20T15:31:34.717Z,61.70
2018-06-20T15:34:08.576Z,64.60
2018-06-20T15:36:42.337Z,61.90
2018-06-20T15:39:10.978Z,61.50
2018-06-20T15:41:39.534Z,61.00
2018-06-20T15:44:08.089Z,61.00
2018-06-20T15:46:36.714Z,61.90
2018-06-20T15:49:05.599Z,59.30
2018-06-20T15:51:34.192Z,61.70
2018-06-20T15:54:02.687Z,62.70
2018-06-20T15:56:31.264Z,63.70
2018-06-20T15:58:59.726Z,64.00
2018-06-20T16:01:28.363Z,62.10
2018-06-20T16:03:56.874Z,62.60
2018-06-20T16:06:25.361Z,59.90
2018-06-20T16:08:59.145Z,63.20
2018-06-20T16:11:27.621Z,61.80
2018-06-20T16:13:56.141Z,61.70
2018-06-20T16:16:24.799Z,64.10
2018-06-20T16:18:58.712Z,61.40
2018-06-20T16:21:32.642Z,62.10
2018-06-20T16:24:06.493Z,63.50
2018-06-20T16:28:47.318Z,63.20
2018-06-20T16:31:15.830Z,61.30
2018-06-20T16:33:44.458Z,59.80
2018-06-20T16:36:12.964Z,60.50
2018-06-20T16:38:41.417Z,59.50
2018-06-20T16:41:10.085Z,60.70
2018-06-20T16:43:38.587Z,59.60
2018-06-20T16:46:07.226Z,61.70
2018-06-20T16:48:35.671Z,63.00
2018-06-20T16:51:04.166Z,63.20
2018-06-20T16:53:32.717Z,64.10
2018-06-20T16:56:01.218Z,64.20
2018-06-20T16:58:30.007Z,66.00
2018-06-20T17:01:03.842Z,67.50
2018-06-20T17:03:32.382Z,67.20
2018-06-20T17:06:00.880Z,65.70
2018-06-20T17:08:29.414Z,67.00
2018-06-20T17:13:31.386Z,66.30
2018-06-20T17:18:38.721Z,64.00
2018-06-20T17:21:12.553Z,66.10
2018-06-20T17:23:46.467Z,65.70
2018-06-20T17:26:14.972Z,66.70
2018-06-20T17:28:43.554Z,65.40
2018-06-20T17:31:12.109Z,65.60
2018-06-20T17:33:40.671Z,65.40
2018-06-20T17:36:09.337Z,65.10
2018-06-20T17:38:37.811Z,65.10
2018-06-20T17:41:06.276Z,67.60
2018-06-20T17:43:34.770Z,68.90
2018-06-20T17:46:03.309Z,67.40
2018-06-20T17:48:31.804Z,67.80
2018-06-20T17:51:00.315Z,67.30
2018-06-20T17:53:28.827Z,69.00
2018-06-20T17:55:57.372Z,68.40
2018-06-20T17:58:25.875Z,69.60
2018-06-20T18:00:59.778Z,67.20
2018-06-20T18:03:28.287Z,65.70
2018-06-20T18:06:02.043Z,66.80
2018-06-20T18:08:35.658Z,68.10
2018-06-20T18:13:11.522Z,69.00
2018-06-20T18:15:45.268Z,69.10
2018-06-20T18:18:13.744Z,70.30
2018-06-20T18:20:42.403Z,70.30
2018-06-20T18:23:11.089Z,70.30
2018-06-20T18:25:39.569Z,71.30
2018-06-20T18:28:08.131Z,71.80
2018-06-20T18:30:37.546Z,72.20
2018-06-20T18:33:06.058Z,73.10
2018-06-20T18:35:39.213Z,72.90
2018-06-20T18:38:07.999Z,72.90
2018-06-20T18:40:36.508Z,72.90
2018-06-20T18:43:05.027Z,73.80
2018-06-20T18:45:33.644Z,74.50
2018-06-20T18:48:07.319Z,74.50
2018-06-20T18:50:35.856Z,75.00
2018-06-20T18:53:04.354Z,75.60
2018-06-20T18:55:32.913Z,76.50
2018-06-20T18:58:06.618Z,77.10
2018-06-20T19:00:40.518Z,77.60
2018-06-20T19:03:14.469Z,77.40
2018-06-20T19:05:48.392Z,77.20
2018-06-20T19:08:22.188Z,78.50
2018-06-20T19:10:50.827Z,78.00
2018-06-20T19:13:19.648Z,78.00
2018-06-20T19:15:48.427Z,78.40
2018-06-20T19:18:20.083Z,79.10
2018-06-20T19:20:51.795Z,79.10
2018-06-20T19:23:20.884Z,79.80
2018-06-20T19:25:49.678Z,80.80
2018-06-20T19:28:18.241Z,81.90
2018-06-20T19:30:46.985Z,83.00
2018-06-20T19:33:15.446Z,83.10
2018-06-20T19:35:44.175Z,84.10
2018-06-20T19:38:12.953Z,84.80
2018-06-20T19:40:41.550Z,86.10
2018-06-20T19:43:10.638Z,86.70
2018-06-20T19:45:39.225Z,87.00
2018-06-20T19:48:07.839Z,88.00
2018-06-20T19:50:36.364Z,88.30
2018-06-20T19:53:04.863Z,88.70
2018-06-20T19:55:33.367Z,89.30
2018-06-20T19:58:01.824Z,89.40
2018-06-20T20:00:30.353Z,90.20
2018-06-20T20:02:58.873Z,90.40
2018-06-20T20:05:27.368Z,90.60
2018-06-20T20:07:55.886Z,90.90
2018-06-20T20:10:24.556Z,91.20
2018-06-20T20:12:53.294Z,91.70
2018-06-20T20:15:21.794Z,91.90
2018-06-20T20:17:50.357Z,92.10
2018-06-20T20:20:19.012Z,92.20
2018-06-20T20:22:47.408Z,92.30
2018-06-20T20:25:16.012Z,92.80
2018-06-20T20:27:44.552Z,92.80
2018-06-20T20:30:13.086Z,93.30
2018-06-20T20:32:41.598Z,93.30
2018-06-20T20:35:10.284Z,93.10
2018-06-20T20:37:39.177Z,93.00
2018-06-20T20:40:07.685Z,92.70
2018-06-20T20:42:36.162Z,92.70
2018-06-20T20:45:04.870Z,92.70
2018-06-20T20:47:33.849Z,93.10
2018-06-20T20:50:02.363Z,93.10
2018-06-20T20:52:30.876Z,93.20
2018-06-20T20:54:59.495Z,93.10
2018-06-20T20:57:28.114Z,93.30
2018-06-20T20:59:56.589Z,93.70
2018-06-20T21:02:25.140Z,93.60
2018-06-20T21:04:53.588Z,93.70
2018-06-20T21:07:22.196Z,93.50
2018-06-20T21:09:50.698Z,93.80
2018-06-20T21:12:19.209Z,93.80
2018-06-20T21:14:47.919Z,93.80
2018-06-20T21:17:16.441Z,93.90
2018-06-20T21:19:44.985Z,94.10
2018-06-20T21:22:13.457Z,94.20
2018-06-20T21:24:41.987Z,94.20
2018-06-20T21:27:10.462Z,94.30
2018-06-20T21:29:38.956Z,94.30
2018-06-20T21:32:07.442Z,94.40
2018-06-20T21:34:36.023Z,94.40
2018-06-20T21:37:04.567Z,94.90
2018-06-20T21:39:46.563Z,95.10
2018-06-20T21:46:15.012Z,95.00
2018-06-20T21:48:43.504Z,94.90
2018-06-20T21:51:12.017Z,94.70
2018-06-20T21:53:40.584Z,94.90
2018-06-20T21:56:09.235Z,95.10
2018-06-20T21:58:38.205Z,94.90
2018-06-20T22:01:06.717Z,94.90
2018-06-20T22:03:35.214Z,95.20
2018-06-20T22:06:03.841Z,95.30
2018-06-20T22:08:32.282Z,95.50
2018-06-20T22:11:00.834Z,95.30
2018-06-20T22:13:29.526Z,95.40
2018-06-20T22:15:58.138Z,95.70
2018-06-20T22:18:27.613Z,95.60
2018-06-20T22:20:56.249Z,95.70
2018-06-20T22:23:24.835Z,95.90
2018-06-20T22:25:53.700Z,95.80
2018-06-20T22:28:22.290Z,95.80
2018-06-20T22:30:50.835Z,95.90
2018-06-20T22:33:19.625Z,95.80
2018-06-20T22:35:48.441Z,96.00
2018-06-20T22:38:18.442Z,96.10
2018-06-20T22:40:47.039Z,96.30
2018-06-20T22:43:16.141Z,96.40
2018-06-20T22:45:44.836Z,96.60
2018-06-20T22:48:14.008Z,96.40
2018-06-20T22:50:42.665Z,96.40
2018-06-20T22:53:11.433Z,96.50
2018-06-20T22:55:40.331Z,96.90
2018-06-20T22:58:08.980Z,97.60
2018-06-20T23:00:38.237Z,97.60
2018-06-20T23:03:07.394Z,97.40
2018-06-20T23:05:36.143Z,97.20
2018-06-20T23:08:04.830Z,97.20
2018-06-20T23:10:33.555Z,97.80
2018-06-20T23:13:02.477Z,97.80
2018-06-20T23:15:31.211Z,97.90
2018-06-20T23:18:00.440Z,97.30
2018-06-20T23:20:29.048Z,97.70
2018-06-20T23:22:58.727Z,97.70
2018-06-20T23:25:27.379Z,97.90
2018-06-20T23:27:56.862Z,98.10
2018-06-20T23:30:26.122Z,98.40
2018-06-20T23:32:54.779Z,98.80
2018-06-20T23:35:23.433Z,98.70
2018-06-20T23:37:52.763Z,99.00
2018-06-20T23:40:21.946Z,99.10
2018-06-20T23:42:51.185Z,99.30
2018-06-20T23:45:19.921Z,99.90
2018-06-20T23:47:48.550Z,99.90
2018-06-20T23:50:17.074Z,99.90
2018-06-20T23:52:46.918Z,99.90
2018-06-20T23:55:15.720Z,99.90
2018-06-20T23:57:44.199Z,99.90
